Portada
METAR-TAF:

METAR-TAF

Aeropuertos :

Cascaes, Portugal

latitud: 38-43-32N, longitud: 009-21-19W, altitud: 99 m

Observación

El informe se hizo hace 10 minutos, a las 16:30 UTC
Viento 9 kt del sur, variando entre sureste y suroeste
Temperatura 18°C
Humedad 94%
Presión 1015 hPa
Visibilidad: 3000 m
Escasas nubes a una altura de 200 ft
Nubes dispersas a una altura de 1000 ft
Cielo nuboso a una altura de 1200 ft
lluvia ligera, neblina

METAR: LPCS 281630Z 19009KT 140V220 3000 -RA BR FEW002 SCT010 BKN012 18/17 Q1015

Hora: 17:40 (16:40 UTC)


TAF: falta

Observaciones y pronósticos meteorológicos de más de 4000 aeropuertos (mensajes METAR y TAF).

Los puntos amarillos y rojos representan las estaciones disponibles.

Ponga el ratón en el punto deseado para ver el nombre de la estación.

Haga clic para ver las observaciones y los pronósticos meteorológicos.

Para cambiar el mapa : haga clic en los botones verdes con una cruz de color negro para hacer un zoom, en el botón verde con un guión para alejar o en las flechas verdes para mapas adyacentes.


METAR-TAF: